Time;durP1;ratioP1;P1;durP2;ratioP2;P2;SDS_P1;SDS_P2;PMS_P1;PMS_P2;Temp;Humidity;BMP_temperature;BMP_pressure;BME280_temperature;BME280_humidity;BME280_pressure;Samples;Min_cycle;Max_cycle;Signal;HPM_P1;HPM_P2
2021/04/13 00:02:48;;;;;;;4.55;3.58;;;3.00;99.90;;;;;;5057283;28;20212;-71
2021/04/13 00:05:40;;;;;;;4.10;3.13;;;2.90;99.90;;;;;;5059352;28;20678;-72
2021/04/13 00:08:26;;;;;;;5.57;4.10;;;2.90;99.90;;;;;;5054655;28;20626;-71
2021/04/13 00:11:12;;;;;;;5.90;4.55;;;3.00;99.90;;;;;;5061012;28;20660;-71
2021/04/13 00:14:00;;;;;;;5.88;3.92;;;3.10;99.90;;;;;;5062039;28;20309;-71
2021/04/13 00:16:47;;;;;;;6.13;4.55;;;3.10;99.90;;;;;;5059473;28;20223;-72
2021/04/13 00:19:41;;;;;;;5.65;4.75;;;2.80;99.90;;;;;;5064257;28;20231;-72
2021/04/13 00:22:28;;;;;;;8.35;4.70;;;2.60;99.90;;;;;;5061057;28;20259;-71
2021/04/13 00:25:24;;;;;;;7.05;3.78;;;2.40;99.90;;;;;;5064131;28;20241;-72
2021/04/13 00:28:10;;;;;;;4.60;3.67;;;2.00;99.90;;;;;;5060544;28;20266;-71
2021/04/13 00:30:58;;;;;;;5.65;3.50;;;1.90;99.90;;;;;;5067184;28;20200;-70
2021/04/13 00:33:43;;;;;;;5.28;3.78;;;1.90;99.90;;;;;;5062013;28;20300;-71
2021/04/13 00:36:28;;;;;;;8.32;4.20;;;2.10;99.90;;;;;;5060087;28;20278;-70
2021/04/13 00:39:17;;;;;;;4.43;3.63;;;2.20;99.90;;;;;;5057619;28;20199;-70
2021/04/13 00:42:07;;;;;;;5.15;3.70;;;2.30;99.90;;;;;;5066716;28;20209;-71
2021/04/13 00:44:56;;;;;;;4.57;3.83;;;2.40;99.90;;;;;;5060834;28;20244;-71
2021/04/13 00:47:43;;;;;;;6.72;4.15;;;2.40;99.90;;;;;;5061126;28;20201;-72
2021/04/13 00:50:33;;;;;;;5.35;4.28;;;2.30;99.90;;;;;;5061927;28;20207;-70
2021/04/13 00:53:23;;;;;;;6.22;4.30;;;2.20;99.90;;;;;;5059046;28;20586;-70
2021/04/13 00:56:11;;;;;;;4.88;4.20;;;2.40;99.90;;;;;;5059421;28;20220;-72
2021/04/13 00:59:03;;;;;;;5.13;4.05;;;2.50;99.90;;;;;;5061697;28;20305;-71
2021/04/13 01:01:53;;;;;;;6.00;4.82;;;2.60;99.90;;;;;;5060559;28;20286;-72
2021/04/13 01:04:40;;;;;;;6.55;4.40;;;2.30;99.90;;;;;;5058581;28;20251;-72
2021/04/13 01:07:32;;;;;;;4.43;3.75;;;2.10;99.90;;;;;;5063406;28;20209;-71
2021/04/13 01:10:23;;;;;;;5.70;3.50;;;1.90;99.90;;;;;;5056243;28;20704;-71
2021/04/13 01:13:12;;;;;;;4.60;3.50;;;1.80;99.90;;;;;;5063869;28;20248;-72
2021/04/13 01:15:58;;;;;;;5.25;4.30;;;1.70;99.90;;;;;;5064835;28;20223;-72
2021/04/13 01:18:48;;;;;;;4.60;3.70;;;1.90;99.90;;;;;;5064595;28;20258;-70
2021/04/13 01:21:44;;;;;;;9.00;4.72;;;2.00;99.90;;;;;;5055362;28;20291;-72
2021/04/13 01:24:36;;;;;;;4.90;3.97;;;2.00;99.90;;;;;;5061012;28;20305;-71
2021/04/13 01:27:23;;;;;;;5.45;4.30;;;1.90;99.90;;;;;;5066489;28;20200;-71
2021/04/13 01:30:12;;;;;;;5.13;4.03;;;1.70;99.90;;;;;;5065399;28;20636;-72
2021/04/13 01:33:09;;;;;;;7.00;4.20;;;1.80;99.90;;;;;;5064073;28;20200;-72
2021/04/13 01:35:57;;;;;;;5.72;4.10;;;1.90;99.90;;;;;;5060655;28;20590;-72
2021/04/13 01:38:58;;;;;;;4.20;3.80;;;1.90;99.90;;;;;;5062085;28;20619;-72
2021/04/13 01:44:50;;;;;;;5.50;3.90;;;1.90;99.90;;;;;;5056322;28;20231;-72
2021/04/13 01:47:37;;;;;;;5.93;3.95;;;2.00;99.90;;;;;;5061229;28;20236;-71
2021/04/13 01:50:27;;;;;;;6.10;4.38;;;2.10;99.90;;;;;;5061418;28;20292;-72
2021/04/13 01:53:16;;;;;;;6.03;4.22;;;2.10;99.90;;;;;;5054052;28;20239;-71
2021/04/13 01:56:05;;;;;;;5.30;3.40;;;2.10;99.90;;;;;;5064603;28;20224;-71
2021/04/13 01:58:57;;;;;;;5.00;3.97;;;2.00;99.90;;;;;;5060712;28;20286;-72
2021/04/13 02:01:50;;;;;;;6.30;4.50;;;2.10;99.90;;;;;;5060324;28;20201;-72
2021/04/13 02:04:47;;;;;;;5.65;4.20;;;2.10;99.90;;;;;;5062742;28;20228;-72
2021/04/13 02:07:44;;;;;;;5.38;4.00;;;1.90;99.90;;;;;;5062834;28;20239;-72
2021/04/13 02:10:35;;;;;;;4.38;3.90;;;1.70;99.90;;;;;;5064900;28;20288;-72
2021/04/13 02:13:33;;;;;;;6.20;4.93;;;1.40;99.90;;;;;;5069433;28;20294;-71
2021/04/13 02:16:22;;;;;;;10.63;3.85;;;1.20;99.90;;;;;;5059491;28;20212;-72
2021/04/13 02:19:10;;;;;;;6.28;4.72;;;1.40;99.90;;;;;;5055998;28;20271;-71
2021/04/13 02:22:01;;;;;;;4.50;4.00;;;1.60;99.90;;;;;;5057266;28;20753;-71
2021/04/13 02:24:50;;;;;;;4.90;4.10;;;1.50;99.90;;;;;;5063448;28;20228;-70
2021/04/13 02:27:40;;;;;;;5.40;4.50;;;1.60;99.90;;;;;;5063990;28;20774;-71
2021/04/13 02:30:32;;;;;;;6.50;4.30;;;1.60;99.90;;;;;;5061482;28;20208;-70
2021/04/13 02:33:28;;;;;;;5.53;4.00;;;1.60;99.90;;;;;;5060573;28;20239;-71
2021/04/13 02:36:16;;;;;;;6.10;3.90;;;1.70;99.90;;;;;;5063415;28;20220;-71
2021/04/13 02:39:04;;;;;;;7.78;4.45;;;1.80;99.90;;;;;;5058948;28;20239;-71
2021/04/13 02:41:54;;;;;;;6.15;4.88;;;1.90;99.90;;;;;;5058763;28;20612;-71
2021/04/13 02:44:40;;;;;;;5.57;4.50;;;1.80;99.90;;;;;;5058703;28;20598;-71
2021/04/13 02:47:26;;;;;;;4.75;3.80;;;1.80;99.90;;;;;;5062856;28;20222;-71
2021/04/13 02:50:17;;;;;;;6.47;4.45;;;1.70;99.90;;;;;;5058976;28;20208;-71
2021/04/13 02:53:04;;;;;;;6.05;4.85;;;1.80;99.90;;;;;;5056371;28;20204;-71
2021/04/13 02:55:51;;;;;;;5.40;4.57;;;1.80;99.90;;;;;;5063292;28;20730;-71
2021/04/13 02:58:44;;;;;;;6.35;4.75;;;1.80;99.90;;;;;;5067409;28;20927;-71
2021/04/13 03:01:29;;;;;;;5.32;4.53;;;1.80;99.90;;;;;;5065306;28;20215;-71
2021/04/13 03:04:16;;;;;;;5.55;4.10;;;1.60;99.90;;;;;;5064700;28;20320;-71
2021/04/13 03:07:01;;;;;;;6.63;4.95;;;1.60;99.90;;;;;;5062333;28;20200;-71
2021/04/13 03:09:46;;;;;;;7.15;4.65;;;1.60;99.90;;;;;;5060641;28;20753;-70
2021/04/13 03:12:37;;;;;;;7.05;4.82;;;1.60;99.90;;;;;;5065614;28;20204;-70
2021/04/13 03:15:25;;;;;;;9.82;5.05;;;1.40;99.90;;;;;;5061601;28;20318;-71
2021/04/13 03:18:16;;;;;;;8.65;4.78;;;1.40;99.90;;;;;;5060646;28;20219;-71
2021/04/13 03:21:08;;;;;;;5.90;4.90;;;1.50;99.90;;;;;;5071564;28;20223;-71
2021/04/13 03:23:55;;;;;;;6.30;4.70;;;1.60;99.90;;;;;;5063601;28;20227;-70
2021/04/13 03:26:46;;;;;;;5.20;4.10;;;1.80;99.90;;;;;;5059937;28;20199;-70
2021/04/13 03:29:41;;;;;;;8.10;4.90;;;1.80;99.90;;;;;;5057064;28;20630;-70
2021/04/13 03:32:31;;;;;;;6.70;4.32;;;1.80;99.90;;;;;;5059027;28;20220;-71
2021/04/13 03:35:16;;;;;;;6.22;5.00;;;1.80;99.90;;;;;;5059828;28;20732;-70
2021/04/13 03:38:03;;;;;;;7.28;4.85;;;1.80;99.90;;;;;;5062482;28;20314;-70
2021/04/13 03:40:51;;;;;;;6.03;4.57;;;1.80;99.90;;;;;;5063792;28;20685;-71
2021/04/13 03:43:36;;;;;;;5.47;4.50;;;1.60;99.90;;;;;;5064762;28;20321;-71
2021/04/13 03:46:23;;;;;;;5.13;4.50;;;1.30;99.90;;;;;;5053149;28;20255;-71
2021/04/13 03:49:17;;;;;;;5.57;4.25;;;1.20;99.90;;;;;;5050271;28;20220;-70
2021/04/13 03:52:06;;;;;;;5.18;4.68;;;1.10;99.90;;;;;;5061990;28;20708;-71
2021/04/13 03:54:52;;;;;;;5.35;4.68;;;1.30;99.90;;;;;;5058540;28;20232;-70
2021/04/13 03:57:37;;;;;;;5.60;4.80;;;1.40;99.90;;;;;;5055001;28;20295;-71
2021/04/13 04:00:25;;;;;;;8.77;5.18;;;1.50;99.90;;;;;;5055444;28;20253;-71
2021/04/13 04:03:10;;;;;;;7.55;5.57;;;1.40;99.90;;;;;;5057722;28;20360;-71
2021/04/13 04:05:57;;;;;;;11.88;5.32;;;1.10;99.90;;;;;;5058826;28;20258;-71
2021/04/13 04:08:46;;;;;;;9.07;4.82;;;0.90;99.90;;;;;;5059299;28;20239;-71
2021/04/13 04:11:32;;;;;;;8.45;5.95;;;0.90;99.90;;;;;;5055772;28;20294;-71
2021/04/13 04:14:21;;;;;;;10.68;5.55;;;0.80;99.90;;;;;;5057912;28;20577;-71
2021/04/13 04:17:08;;;;;;;8.10;5.78;;;0.70;99.90;;;;;;5063838;28;20274;-70
2021/04/13 04:19:55;;;;;;;5.90;5.22;;;0.40;99.90;;;;;;5055689;28;20208;-72
2021/04/13 04:22:50;;;;;;;7.32;5.45;;;0.40;99.90;;;;;;5056361;28;20701;-70
2021/04/13 04:25:40;;;;;;;7.97;6.13;;;0.50;99.90;;;;;;5058927;28;20670;-71
2021/04/13 04:28:33;;;;;;;7.72;6.25;;;0.60;99.90;;;;;;5062109;28;20329;-70
2021/04/13 04:31:35;;;;;;;7.97;6.40;;;0.70;99.90;;;;;;5065449;28;20204;-69
2021/04/13 04:35:01;;;;;;;8.00;6.38;;;0.80;99.90;;;;;;5052642;28;20703;-71
2021/04/13 04:38:08;;;;;;;8.65;6.10;;;0.90;99.90;;;;;;5055938;28;20228;-71
2021/04/13 04:41:11;;;;;;;10.55;6.30;;;1.20;99.90;;;;;;5062035;28;20260;-71
2021/04/13 04:43:58;;;;;;;7.95;6.00;;;1.30;99.90;;;;;;5056733;28;20228;-72
2021/04/13 04:46:44;;;;;;;6.88;5.35;;;1.40;99.90;;;;;;5065236;28;20825;-70
2021/04/13 04:49:39;;;;;;;6.82;5.38;;;1.10;99.90;;;;;;5060497;28;20294;-71
2021/04/13 04:52:25;;;;;;;9.05;6.65;;;0.90;99.90;;;;;;5061717;28;20570;-71
2021/04/13 04:55:13;;;;;;;7.47;5.55;;;0.80;99.90;;;;;;5067909;28;20281;-71
2021/04/13 04:57:58;;;;;;;11.63;7.32;;;0.70;99.90;;;;;;5063657;28;20220;-70
2021/04/13 05:00:43;;;;;;;8.25;6.63;;;0.50;99.90;;;;;;5067447;28;20682;-71
2021/04/13 05:03:29;;;;;;;9.48;6.63;;;0.50;99.90;;;;;;5067003;28;20224;-70
2021/04/13 05:06:14;;;;;;;12.90;7.30;;;0.40;99.90;;;;;;5066606;28;20200;-71
2021/04/13 05:08:59;;;;;;;10.48;6.88;;;0.40;99.90;;;;;;5067460;28;20254;-69
2021/04/13 05:11:45;;;;;;;8.63;7.13;;;0.40;99.90;;;;;;5063050;28;20205;-71
2021/04/13 05:14:30;;;;;;;11.98;6.85;;;0.50;99.90;;;;;;5059017;28;20304;-69
2021/04/13 05:17:16;;;;;;;10.35;7.53;;;0.60;99.90;;;;;;5056401;28;20212;-71
2021/04/13 05:20:01;;;;;;;9.55;7.00;;;0.80;99.90;;;;;;5067034;28;20571;-71
2021/04/13 05:22:46;;;;;;;14.82;7.15;;;0.90;99.90;;;;;;5063714;28;20244;-71
2021/04/13 05:25:31;;;;;;;8.13;5.88;;;1.10;99.90;;;;;;5057920;28;20207;-71
2021/04/13 05:28:18;;;;;;;10.63;7.45;;;1.30;99.90;;;;;;5063280;28;20206;-71
2021/04/13 05:31:04;;;;;;;18.60;7.63;;;1.40;99.90;;;;;;5058324;28;20204;-70
2021/04/13 05:33:49;;;;;;;21.35;8.10;;;1.60;99.90;;;;;;5065312;28;20270;-70
2021/04/13 05:36:34;;;;;;;12.48;7.43;;;1.70;99.90;;;;;;5059340;28;20244;-71
2021/04/13 05:39:20;;;;;;;20.38;7.57;;;1.70;99.90;;;;;;5068340;28;20217;-70
2021/04/13 05:42:06;;;;;;;20.02;7.38;;;1.80;99.90;;;;;;5065325;28;20219;-72
2021/04/13 05:44:53;;;;;;;10.55;7.55;;;1.90;99.90;;;;;;5064373;28;20289;-71
2021/04/13 05:47:39;;;;;;;9.55;6.85;;;2.00;99.90;;;;;;5062992;28;20200;-72
2021/04/13 05:50:27;;;;;;;9.32;6.65;;;2.10;99.90;;;;;;5059228;28;20318;-71
2021/04/13 05:53:13;;;;;;;8.73;7.05;;;2.20;99.90;;;;;;5056719;28;20263;-71
2021/04/13 05:55:59;;;;;;;9.73;6.03;;;2.30;99.90;;;;;;5059870;28;20212;-72
2021/04/13 05:58:46;;;;;;;8.10;6.97;;;2.40;99.90;;;;;;5064068;28;20259;-70
2021/04/13 06:01:34;;;;;;;11.82;6.40;;;2.40;99.90;;;;;;5063831;28;20719;-71
2021/04/13 06:04:19;;;;;;;11.77;7.55;;;2.40;99.90;;;;;;5059659;28;20220;-71
2021/04/13 06:07:04;;;;;;;12.68;7.15;;;2.50;99.90;;;;;;5060777;28;20296;-71
2021/04/13 06:09:49;;;;;;;10.00;7.43;;;2.50;99.90;;;;;;5065559;28;20865;-71
2021/04/13 06:12:34;;;;;;;11.93;8.68;;;2.60;99.90;;;;;;5060008;28;20276;-70
2021/04/13 06:15:20;;;;;;;12.07;7.80;;;2.70;99.90;;;;;;5061202;28;21779;-71
2021/04/13 06:18:06;;;;;;;11.98;9.15;;;2.80;99.90;;;;;;5064786;28;20590;-71
2021/04/13 06:20:52;;;;;;;9.02;8.15;;;3.00;99.90;;;;;;5061595;28;20251;-71
2021/04/13 06:23:38;;;;;;;9.32;8.15;;;3.00;99.90;;;;;;5067505;28;20343;-71
2021/04/13 06:26:24;;;;;;;14.65;9.90;;;3.10;99.90;;;;;;5059221;28;20197;-72
2021/04/13 06:29:09;;;;;;;9.48;8.48;;;3.10;99.90;;;;;;5059477;28;20590;-71
2021/04/13 06:31:54;;;;;;;13.95;10.30;;;3.20;99.90;;;;;;5057030;28;20277;-71
2021/04/13 06:34:40;;;;;;;14.30;9.60;;;3.30;99.90;;;;;;5060171;28;20275;-71
2021/04/13 06:37:26;;;;;;;10.75;8.52;;;3.30;99.90;;;;;;5059447;28;20645;-72
2021/04/13 06:40:22;;;;;;;13.82;9.63;;;3.40;99.90;;;;;;5061851;28;20215;-72
2021/04/13 06:43:16;;;;;;;22.45;10.60;;;3.40;99.90;;;;;;5068380;28;20861;-71
2021/04/13 06:46:10;;;;;;;12.70;9.10;;;3.50;99.90;;;;;;5060199;28;20215;-72
2021/04/13 06:49:13;;;;;;;16.27;10.52;;;3.60;99.90;;;;;;5062589;28;20203;-71
2021/04/13 06:52:17;;;;;;;12.77;10.10;;;3.70;99.90;;;;;;5060297;28;20223;-72
2021/04/13 06:55:12;;;;;;;16.73;11.15;;;3.90;99.90;;;;;;5065798;28;20247;-73
2021/04/13 06:58:14;;;;;;;13.98;11.50;;;4.10;99.90;;;;;;5059535;28;20227;-72
2021/04/13 07:01:07;;;;;;;20.83;11.88;;;4.30;99.90;;;;;;5058435;28;20673;-70
2021/04/13 07:03:58;;;;;;;14.80;10.88;;;4.30;99.90;;;;;;5061936;28;20252;-72
2021/04/13 07:06:51;;;;;;;18.23;12.85;;;4.40;99.90;;;;;;5064706;28;20211;-72
2021/04/13 07:09:40;;;;;;;18.52;12.27;;;4.50;99.90;;;;;;5067055;28;20240;-72
2021/04/13 07:12:32;;;;;;;14.18;10.88;;;4.60;99.90;;;;;;5066973;28;20200;-72
2021/04/13 07:15:24;;;;;;;15.77;12.25;;;4.60;99.90;;;;;;5062945;28;20199;-72
2021/04/13 07:18:18;;;;;;;21.67;14.65;;;4.70;99.90;;;;;;5056819;28;20267;-71
2021/04/13 07:21:09;;;;;;;16.58;12.60;;;4.80;99.90;;;;;;5068708;28;20204;-72
2021/04/13 07:23:57;;;;;;;18.67;14.40;;;5.00;99.90;;;;;;5056930;28;20237;-72
2021/04/13 07:26:47;;;;;;;21.95;16.17;;;5.20;99.90;;;;;;5060603;28;20350;-71
2021/04/13 07:29:36;;;;;;;25.73;16.88;;;5.30;99.90;;;;;;5057525;28;20215;-72
2021/04/13 07:32:24;;;;;;;23.10;16.17;;;5.50;99.90;;;;;;5059962;28;20259;-72
2021/04/13 07:35:13;;;;;;;24.70;17.58;;;5.70;99.90;;;;;;5060997;28;20232;-72
2021/04/13 07:38:02;;;;;;;21.92;16.15;;;5.80;99.90;;;;;;5063299;28;20614;-72
2021/04/13 07:40:51;;;;;;;24.15;15.93;;;5.90;99.90;;;;;;5059670;28;20336;-71
2021/04/13 07:43:41;;;;;;;26.17;15.55;;;6.10;99.90;;;;;;5064739;28;20245;-71
2021/04/13 07:46:46;;;;;;;21.43;15.27;;;6.20;99.90;;;;;;5056618;28;21823;-72
2021/04/13 07:49:38;;;;;;;21.90;14.83;;;6.40;99.90;;;;;;5056471;28;20482;-72
2021/04/13 07:52:41;;;;;;;20.47;14.60;;;6.40;99.90;;;;;;5060375;28;20487;-72
2021/04/13 07:55:35;;;;;;;18.93;13.97;;;6.50;99.90;;;;;;5066147;28;20991;-72
2021/04/13 07:58:40;;;;;;;19.73;12.77;;;6.70;99.90;;;;;;5064247;28;20474;-71
2021/04/13 08:01:26;;;;;;;21.27;13.70;;;6.80;99.90;;;;;;5057149;28;20228;-72
2021/04/13 08:04:16;;;;;;;16.73;13.40;;;6.80;99.90;;;;;;5062686;28;20644;-72
2021/04/13 08:07:10;;;;;;;21.50;12.85;;;6.80;99.90;;;;;;5060555;28;20200;-72
2021/04/13 08:10:22;;;;;;;22.87;14.97;;;6.90;99.90;;;;;;5058374;28;20219;-72
2021/04/13 08:13:12;;;;;;;18.37;12.43;;;7.10;99.90;;;;;;5062145;28;20462;-72
2021/04/13 08:15:59;;;;;;;16.70;12.35;;;7.30;99.90;;;;;;5062423;28;20455;-71
2021/04/13 08:18:45;;;;;;;16.83;12.23;;;7.40;97.20;;;;;;5060416;28;20296;-72
2021/04/13 08:21:33;;;;;;;19.92;14.48;;;7.40;96.50;;;;;;5067710;28;20208;-72
2021/04/13 08:24:36;;;;;;;16.95;13.60;;;7.40;96.40;;;;;;5060534;28;20224;-72
2021/04/13 08:27:39;;;;;;;20.37;13.53;;;7.40;93.80;;;;;;5060865;28;20274;-72
2021/04/13 08:34:18;;;;;;;20.93;14.17;;;7.30;92.30;;;;;;5067449;28;20879;-72
2021/04/13 08:37:10;;;;;;;18.10;13.17;;;7.10;85.00;;;;;;5069614;28;20847;-71
2021/04/13 08:40:26;;;;;;;20.20;13.80;;;7.10;86.10;;;;;;5067469;28;20526;-72
2021/04/13 08:43:21;;;;;;;17.50;13.03;;;7.10;87.50;;;;;;5062319;28;20839;-72
2021/04/13 08:46:14;;;;;;;14.83;11.53;;;7.10;85.70;;;;;;5063829;28;20955;-71
2021/04/13 08:49:02;;;;;;;14.70;11.70;;;7.00;84.50;;;;;;5063148;28;20478;-73
2021/04/13 08:51:51;;;;;;;17.03;10.70;;;7.00;82.10;;;;;;5064417;28;20541;-73
2021/04/13 08:54:37;;;;;;;15.07;10.73;;;7.00;81.90;;;;;;5063603;28;20891;-73
2021/04/13 08:57:31;;;;;;;17.42;11.63;;;7.10;81.40;;;;;;5068912;28;20243;-72
2021/04/13 09:00:39;;;;;;;14.57;10.17;;;7.20;81.00;;;;;;5057709;28;20270;-71
2021/04/13 09:03:40;;;;;;;18.65;10.60;;;7.30;78.00;;;;;;5057748;28;21011;-71
2021/04/13 09:06:51;;;;;;;15.63;10.93;;;7.50;77.40;;;;;;5056156;28;20220;-71
2021/04/13 09:09:44;;;;;;;14.77;10.87;;;7.70;74.70;;;;;;5064593;28;20467;-71
2021/04/13 09:12:31;;;;;;;15.70;11.23;;;7.80;71.00;;;;;;5063624;28;20448;-71
2021/04/13 09:15:24;;;;;;;15.55;10.95;;;8.00;71.40;;;;;;5062260;28;20803;-71
2021/04/13 09:18:12;;;;;;;13.10;10.80;;;8.10;67.60;;;;;;5063618;28;20220;-70
2021/04/13 09:21:05;;;;;;;14.30;10.77;;;8.10;67.30;;;;;;5066983;28;20288;-71
2021/04/13 09:23:58;;;;;;;11.70;9.37;;;8.30;70.30;;;;;;5059421;28;20275;-71
2021/04/13 09:27:01;;;;;;;15.20;10.05;;;8.40;63.30;;;;;;5058683;28;20497;-71
2021/04/13 09:29:49;;;;;;;12.73;9.23;;;8.30;61.30;;;;;;5061287;28;20565;-71
2021/04/13 09:32:43;;;;;;;13.23;10.10;;;8.30;62.10;;;;;;5056125;28;20520;-70
2021/04/13 09:35:44;;;;;;;15.53;8.90;;;8.30;63.80;;;;;;5064093;28;20963;-70
2021/04/13 09:38:50;;;;;;;12.80;8.17;;;8.40;62.40;;;;;;5060907;28;20473;-71
2021/04/13 09:42:08;;;;;;;9.67;7.40;;;8.60;60.20;;;;;;5060548;28;20450;-71
2021/04/13 09:45:14;;;;;;;10.33;7.10;;;8.60;53.10;;;;;;5061498;28;20467;-71
2021/04/13 09:48:36;;;;;;;12.83;7.90;;;8.50;49.70;;;;;;5058735;28;20449;-70
2021/04/13 09:51:27;;;;;;;9.60;7.07;;;8.40;50.60;;;;;;5067802;28;20501;-71
2021/04/13 09:54:29;;;;;;;11.20;6.40;;;8.50;49.00;;;;;;5057806;28;20467;-72
2021/04/13 09:57:52;;;;;;;11.70;7.10;;;8.60;45.40;;;;;;5065741;28;20608;-72
2021/04/13 10:00:57;;;;;;;8.70;6.97;;;8.50;43.50;;;;;;5057103;28;20455;-71
2021/04/13 10:04:19;;;;;;;10.23;7.00;;;8.50;45.50;;;;;;5060456;28;20548;-72
2021/04/13 10:07:17;;;;;;;11.67;7.03;;;8.60;44.50;;;;;;5055480;28;20442;-72
2021/04/13 10:10:05;;;;;;;8.25;6.30;;;8.70;46.70;;;;;;5062027;28;20485;-72
2021/04/13 10:13:24;;;;;;;9.93;5.80;;;8.80;45.40;;;;;;5065616;28;20201;-72
2021/04/13 10:16:21;;;;;;;13.63;6.70;;;8.80;45.30;;;;;;5057395;28;20467;-72
2021/04/13 10:19:22;;;;;;;10.40;7.33;;;9.00;45.50;;;;;;5055395;28;20539;-72
2021/04/13 10:22:49;;;;;;;8.13;5.87;;;9.20;43.60;;;;;;5062321;28;20455;-72
2021/04/13 10:26:16;;;;;;;6.90;5.07;;;9.30;41.70;;;;;;5060419;28;20506;-71
2021/04/13 10:29:37;;;;;;;7.23;5.50;;;9.10;39.30;;;;;;5062163;28;20506;-71
2021/04/13 10:32:56;;;;;;;8.73;5.73;;;8.90;38.90;;;;;;5059084;28;20513;-71
2021/04/13 10:36:13;;;;;;;15.83;6.70;;;8.90;40.70;;;;;;5059828;28;20450;-72
2021/04/13 10:39:32;;;;;;;22.53;6.70;;;8.90;42.40;;;;;;5058827;28;20509;-71
2021/04/13 10:43:10;;;;;;;9.87;6.10;;;8.70;42.50;;;;;;5061508;28;20534;-71
2021/04/13 10:46:32;;;;;;;20.87;7.47;;;8.80;41.70;;;;;;5060340;28;20450;-72
2021/04/13 10:49:35;;;;;;;11.63;6.57;;;8.80;41.10;;;;;;5062291;28;20481;-72
2021/04/13 10:52:54;;;;;;;15.90;6.13;;;8.90;42.70;;;;;;5057376;28;20438;-72
2021/04/13 10:56:10;;;;;;;7.27;5.30;;;9.20;43.00;;;;;;5056288;28;20491;-72
2021/04/13 10:59:33;;;;;;;8.97;6.20;;;9.60;39.20;;;;;;5055716;28;20953;-71
2021/04/13 11:02:57;;;;;;;8.30;5.37;;;10.10;38.10;;;;;;5061271;28;20444;-72
2021/04/13 11:06:22;;;;;;;9.63;5.70;;;10.50;39.00;;;;;;5050591;28;20512;-71
2021/04/13 11:09:39;;;;;;;7.83;4.77;;;10.70;35.70;;;;;;5059279;28;20485;-72
2021/04/13 11:13:05;;;;;;;5.50;4.63;;;10.60;36.50;;;;;;5062128;28;20451;-72
2021/04/13 11:16:02;;;;;;;8.03;5.03;;;10.80;37.20;;;;;;5050390;28;20462;-71
2021/04/13 11:19:18;;;;;;;8.70;5.20;;;10.90;37.30;;;;;;5059223;28;20475;-71
2021/04/13 11:22:39;;;;;;;8.03;5.10;;;11.00;36.70;;;;;;5059981;28;20819;-71
2021/04/13 11:26:06;;;;;;;8.00;5.57;;;10.80;38.00;;;;;;5053569;28;20796;-71
2021/04/13 11:29:24;;;;;;;8.03;4.70;;;10.50;35.70;;;;;;5060903;28;20458;-71
2021/04/13 11:33:04;;;;;;;8.97;5.33;;;10.30;36.90;;;;;;5053623;28;20479;-70
2021/04/13 11:35:53;;;;;;;5.57;4.90;;;10.20;37.50;;;;;;5056003;28;20498;-71
2021/04/13 11:39:00;;;;;;;9.13;4.93;;;10.00;35.80;;;;;;5064915;28;20525;-71
2021/04/13 11:42:14;;;;;;;12.30;4.90;;;9.80;37.00;;;;;;5068797;28;20882;-71
2021/04/13 11:45:16;;;;;;;11.97;5.23;;;9.90;39.50;;;;;;5056520;28;20578;-71
2021/04/13 11:48:11;;;;;;;6.73;4.73;;;10.30;35.00;;;;;;5060346;28;20469;-70
2021/04/13 11:51:02;;;;;;;6.30;4.77;;;10.50;38.00;;;;;;5055397;28;20830;-71
2021/04/13 11:53:48;;;;;;;7.93;5.17;;;10.50;39.10;;;;;;5060388;28;20507;-72
2021/04/13 11:56:37;;;;;;;8.50;4.97;;;10.50;38.50;;;;;;5059443;28;20524;-71
2021/04/13 11:59:24;;;;;;;7.50;4.77;;;10.50;38.40;;;;;;5064080;28;20465;-70
2021/04/13 12:02:24;;;;;;;8.47;4.63;;;10.30;36.70;;;;;;5058318;28;20447;-71
2021/04/13 12:05:25;;;;;;;9.50;5.60;;;10.20;36.70;;;;;;5064157;28;20463;-71
2021/04/13 12:08:38;;;;;;;9.57;5.10;;;10.00;38.30;;;;;;5059686;28;20533;-71
2021/04/13 12:11:44;;;;;;;6.00;4.70;;;10.20;39.40;;;;;;5059064;28;20474;-71
2021/04/13 12:14:39;;;;;;;6.90;4.07;;;10.60;39.10;;;;;;5053561;28;20521;-71
2021/04/13 12:17:33;;;;;;;6.60;4.20;;;11.00;41.60;;;;;;5060744;28;20774;-71
2021/04/13 12:20:46;;;;;;;9.73;3.83;;;11.50;40.30;;;;;;5052272;28;20443;-71
2021/04/13 12:23:50;;;;;;;10.90;3.97;;;11.50;37.40;;;;;;5053764;28;21026;-72
2021/04/13 12:26:39;;;;;;;8.90;4.27;;;11.50;36.80;;;;;;5054060;28;20608;-71
2021/04/13 12:29:33;;;;;;;7.00;3.70;;;11.10;34.70;;;;;;5063833;28;20442;-70
2021/04/13 12:32:24;;;;;;;5.67;3.97;;;10.80;35.40;;;;;;5061579;28;20497;-71
2021/04/13 12:35:10;;;;;;;7.37;4.30;;;10.60;36.70;;;;;;5064331;28;21028;-70
2021/04/13 12:37:55;;;;;;;8.80;3.60;;;10.50;35.80;;;;;;5064531;28;20498;-71
2021/04/13 12:41:00;;;;;;;6.70;3.30;;;10.40;36.50;;;;;;5056348;28;20513;-69
2021/04/13 12:43:48;;;;;;;6.70;3.53;;;10.50;39.20;;;;;;5053788;28;20463;-70
2021/04/13 12:46:40;;;;;;;5.73;3.60;;;10.70;40.90;;;;;;5060128;28;20451;-71
2021/04/13 12:49:28;;;;;;;4.87;3.20;;;10.90;39.90;;;;;;5060854;28;20523;-71
2021/04/13 12:52:18;;;;;;;5.87;3.03;;;10.80;39.40;;;;;;5059375;28;20504;-70
2021/04/13 12:55:11;;;;;;;4.83;2.80;;;10.70;38.90;;;;;;5061097;28;20482;-71
2021/04/13 12:58:01;;;;;;;8.33;3.87;;;10.60;40.00;;;;;;5057774;28;20878;-70
2021/04/13 13:00:48;;;;;;;5.93;3.27;;;10.70;38.20;;;;;;5061092;28;20418;-71
2021/04/13 13:03:37;;;;;;;5.63;3.13;;;10.80;39.70;;;;;;5056051;28;20478;-71
2021/04/13 13:06:28;;;;;;;4.30;2.80;;;11.30;38.80;;;;;;5063272;28;21043;-71
2021/04/13 13:09:24;;;;;;;12.33;2.90;;;11.80;35.70;;;;;;5062165;28;20493;-71
2021/04/13 13:12:17;;;;;;;3.90;2.10;;;11.90;35.70;;;;;;5063702;28;20502;-71
2021/04/13 13:15:05;;;;;;;4.87;3.23;;;11.80;33.50;;;;;;5063251;28;20496;-70
2021/04/13 13:17:50;;;;;;;6.90;2.83;;;11.50;34.20;;;;;;5064751;28;20478;-71
2021/04/13 13:20:36;;;;;;;4.93;2.50;;;11.20;34.10;;;;;;5067863;28;20446;-71
2021/04/13 13:23:28;;;;;;;4.23;2.70;;;10.80;35.10;;;;;;5059670;28;20562;-71
2021/04/13 13:26:19;;;;;;;5.00;2.73;;;10.60;36.90;;;;;;5058900;28;20450;-71
2021/04/13 13:29:04;;;;;;;5.40;2.50;;;10.50;37.90;;;;;;5064303;28;21026;-71
2021/04/13 13:31:50;;;;;;;4.50;2.80;;;10.40;38.70;;;;;;5067214;28;20576;-72
2021/04/13 13:34:35;;;;;;;4.50;2.97;;;10.30;38.30;;;;;;5059982;28;20493;-71
2021/04/13 13:37:27;;;;;;;5.30;2.83;;;10.20;39.00;;;;;;5058941;28;20541;-70
2021/04/13 13:40:15;;;;;;;3.70;1.90;;;10.20;38.30;;;;;;5064049;28;20454;-71
2021/04/13 13:43:06;;;;;;;7.00;2.70;;;10.40;38.70;;;;;;5066925;28;20501;-71
2021/04/13 13:45:52;;;;;;;4.47;1.70;;;10.90;38.10;;;;;;5060909;28;20571;-71
2021/04/13 13:48:38;;;;;;;4.07;1.80;;;11.20;33.10;;;;;;5065887;28;20461;-71
2021/04/13 13:51:28;;;;;;;2.83;1.67;;;11.60;33.10;;;;;;5059050;28;20875;-70
2021/04/13 13:54:21;;;;;;;2.17;1.50;;;12.20;33.40;;;;;;5061376;28;20470;-72
2021/04/13 13:57:12;;;;;;;3.90;1.83;;;12.50;32.30;;;;;;5068499;28;20470;-71
2021/04/13 13:59:57;;;;;;;3.00;1.57;;;12.30;32.20;;;;;;5059893;28;21083;-70
2021/04/13 14:02:42;;;;;;;2.27;1.30;;;11.90;31.20;;;;;;5067414;28;20492;-72
2021/04/13 14:05:28;;;;;;;3.70;1.30;;;11.50;34.20;;;;;;5067161;28;20527;-71
2021/04/13 14:08:17;;;;;;;2.73;1.37;;;11.00;34.70;;;;;;5061710;28;20554;-71
2021/04/13 14:11:11;;;;;;;5.63;1.90;;;10.80;35.20;;;;;;5065042;28;20438;-69
2021/04/13 14:13:58;;;;;;;2.13;1.17;;;10.60;36.50;;;;;;5060331;28;20564;-71
2021/04/13 14:16:48;;;;;;;5.73;1.40;;;10.50;35.30;;;;;;5055524;28;20447;-70
2021/04/13 14:19:36;;;;;;;3.07;1.20;;;10.50;36.40;;;;;;5056300;28;21049;-71
2021/04/13 14:22:26;;;;;;;3.60;1.43;;;10.40;34.30;;;;;;5054411;28;20889;-70
2021/04/13 14:25:20;;;;;;;3.50;1.80;;;10.30;34.70;;;;;;5066386;28;20475;-71
2021/04/13 14:28:19;;;;;;;3.30;1.17;;;10.30;36.20;;;;;;5060329;28;20439;-70
2021/04/13 14:31:14;;;;;;;3.63;1.90;;;10.10;35.30;;;;;;5061324;28;20452;-71
2021/04/13 14:33:59;;;;;;;4.90;1.40;;;10.50;36.10;;;;;;5060360;28;20486;-71
2021/04/13 14:36:46;;;;;;;5.60;1.80;;;11.00;36.60;;;;;;5060008;28;20449;-71
2021/04/13 14:39:34;;;;;;;3.37;1.90;;;11.40;34.80;;;;;;5067460;28;20421;-71
2021/04/13 14:42:22;;;;;;;4.90;1.87;;;11.60;33.00;;;;;;5065102;28;20866;-70
2021/04/13 14:45:09;;;;;;;6.83;2.20;;;11.90;34.40;;;;;;5055459;28;21041;-71
2021/04/13 14:47:58;;;;;;;3.27;2.00;;;12.20;33.60;;;;;;5059553;28;20478;-71
2021/04/13 14:50:45;;;;;;;3.67;1.97;;;12.40;34.20;;;;;;5058242;28;20443;-72
2021/04/13 14:53:30;;;;;;;3.70;1.83;;;12.80;32.30;;;;;;5062525;28;20482;-70
2021/04/13 14:56:17;;;;;;;4.00;1.90;;;13.00;32.10;;;;;;5057967;28;20447;-72
2021/04/13 14:59:03;;;;;;;5.20;2.10;;;13.00;32.10;;;;;;5062443;28;20524;-70
2021/04/13 15:01:48;;;;;;;3.07;1.90;;;12.80;31.90;;;;;;5059661;28;20512;-71
2021/04/13 15:04:33;;;;;;;9.30;2.77;;;12.30;32.30;;;;;;5058224;28;20474;-71
2021/04/13 15:07:20;;;;;;;3.30;1.80;;;11.80;34.30;;;;;;5055464;28;20550;-70
2021/04/13 15:10:08;;;;;;;7.00;2.60;;;11.60;34.90;;;;;;5062739;28;20485;-71
2021/04/13 15:12:54;;;;;;;4.07;2.43;;;11.30;35.30;;;;;;5064760;28;20545;-71